Time;durP1;ratioP1;P1;durP2;ratioP2;P2;SDS_P1;SDS_P2;PMS_P1;PMS_P2;Temp;Humidity;BMP_temperature;BMP_pressure;BME280_temperature;BME280_humidity;BME280_pressure;Samples;Min_cycle;Max_cycle;Signal;HPM_P1;HPM_P2
2021/10/25 00:01:29;;;;;;;5.07;2.60;;;;;;;4.54;100.00;101209.03;5239927;28;20033;-82
2021/10/25 00:03:59;;;;;;;6.50;2.88;;;;;;;4.60;100.00;101214.19;5238458;28;20480;-81
2021/10/25 00:06:29;;;;;;;6.13;2.80;;;;;;;4.70;100.00;101220.22;5238491;28;20028;-82
2021/10/25 00:09:00;;;;;;;5.82;2.80;;;;;;;4.77;100.00;101217.59;5238482;28;20044;-82
2021/10/25 00:11:31;;;;;;;9.52;3.10;;;;;;;4.78;100.00;101228.84;5236798;28;20097;-81
2021/10/25 00:14:02;;;;;;;6.35;2.80;;;;;;;4.73;100.00;101225.38;5238244;28;20025;-81
2021/10/25 00:16:32;;;;;;;3.78;2.42;;;;;;;4.68;100.00;101220.22;5239199;28;20086;-80
2021/10/25 00:19:04;;;;;;;6.43;2.47;;;;;;;4.68;100.00;101217.66;5238351;28;20060;-80
2021/10/25 00:21:35;;;;;;;5.90;2.65;;;;;;;4.73;100.00;101204.66;5239158;28;20020;-80
2021/10/25 00:24:05;;;;;;;6.53;2.45;;;;;;;4.69;100.00;101218.50;5240409;28;20395;-80
2021/10/25 00:26:36;;;;;;;5.80;2.83;;;;;;;4.55;100.00;101218.50;5240886;28;20042;-80
2021/10/25 00:29:06;;;;;;;5.57;2.70;;;;;;;4.67;100.00;101230.56;5233203;28;20025;-80
2021/10/25 00:31:36;;;;;;;6.28;2.60;;;;;;;4.58;100.00;101222.81;5235664;28;20024;-80
2021/10/25 00:34:07;;;;;;;4.25;2.33;;;;;;;4.62;100.00;101216.78;5243228;28;20035;-80
2021/10/25 00:36:37;;;;;;;5.60;2.45;;;;;;;4.69;100.00;101221.06;5235044;28;20028;-81
2021/10/25 00:39:08;;;;;;;4.30;2.25;;;;;;;4.63;100.00;101221.94;5233388;28;20024;-80
2021/10/25 00:41:39;;;;;;;7.28;2.60;;;;;;;4.47;100.00;101220.22;5230269;28;20040;-80
2021/10/25 00:44:09;;;;;;;6.50;2.33;;;;;;;4.57;100.00;101214.19;5237129;28;20024;-80
2021/10/25 00:46:41;;;;;;;3.97;2.38;;;;;;;4.38;100.00;101217.66;5233022;28;20091;-80
2021/10/25 00:49:11;;;;;;;5.72;2.72;;;;;;;4.36;100.00;101221.97;5237895;28;20062;-80
2021/10/25 00:51:41;;;;;;;5.20;2.75;;;;;;;4.17;100.00;101216.81;5235859;28;20281;-80
2021/10/25 00:54:12;;;;;;;4.53;2.75;;;;;;;4.21;100.00;101215.94;5237491;28;20028;-80
2021/10/25 00:56:43;;;;;;;7.93;2.90;;;;;;;4.07;100.00;101226.28;5239396;28;20111;-80
2021/10/25 00:59:15;;;;;;;5.18;2.78;;;;;;;4.14;100.00;101222.81;5229580;28;20082;-80
2021/10/25 01:01:45;;;;;;;6.55;3.10;;;;;;;4.24;100.00;101219.38;5234323;28;20140;-80
2021/10/25 01:04:16;;;;;;;6.90;2.80;;;;;;;4.06;100.00;101216.78;5240930;28;20034;-80
2021/10/25 01:06:48;;;;;;;7.40;3.00;;;;;;;4.02;100.00;101212.50;5234197;28;20307;-80
2021/10/25 01:09:19;;;;;;;8.15;2.83;;;;;;;4.00;100.00;101210.75;5232534;28;20047;-80
2021/10/25 01:11:49;;;;;;;7.28;2.85;;;;;;;3.85;100.00;101208.16;5229622;28;20032;-80
2021/10/25 01:14:20;;;;;;;5.90;2.28;;;;;;;3.57;100.00;101211.53;5238696;28;20373;-80
2021/10/25 01:16:51;;;;;;;4.55;2.05;;;;;;;3.59;100.00;101228.75;5237116;28;20058;-80
2021/10/25 01:19:21;;;;;;;4.65;2.00;;;;;;;3.41;100.00;101208.91;5233484;28;20024;-80
2021/10/25 01:21:51;;;;;;;5.78;2.60;;;;;;;3.42;100.00;101211.50;5233974;28;20027;-80
2021/10/25 01:24:21;;;;;;;4.28;2.45;;;;;;;3.62;100.00;101215.00;5230193;28;20036;-80
2021/10/25 01:26:52;;;;;;;8.30;2.30;;;;;;;3.56;100.00;101209.78;5237693;28;20029;-80
2021/10/25 01:29:22;;;;;;;4.38;2.30;;;;;;;3.62;100.00;101210.69;5233358;28;20379;-80
2021/10/25 01:31:53;;;;;;;11.07;2.38;;;;;;;3.54;100.00;101210.66;5237296;28;20032;-80
2021/10/25 01:34:23;;;;;;;5.88;2.50;;;;;;;3.47;100.00;101211.50;5236673;28;20537;-80
2021/10/25 01:36:53;;;;;;;4.78;2.15;;;;;;;3.52;100.00;101212.41;5236205;28;20412;-80
2021/10/25 01:39:24;;;;;;;4.82;2.40;;;;;;;3.56;100.00;101216.69;5234659;28;20293;-79
2021/10/25 01:41:54;;;;;;;5.15;2.40;;;;;;;3.55;100.00;101218.41;5231382;28;20484;-80
2021/10/25 01:44:24;;;;;;;4.72;2.30;;;;;;;3.37;100.00;101210.59;5237133;28;20031;-80
2021/10/25 01:46:55;;;;;;;6.72;2.45;;;;;;;3.38;100.00;101208.91;5236806;28;20024;-80
2021/10/25 01:49:26;;;;;;;4.60;2.80;;;;;;;3.25;100.00;101201.94;5237391;28;20024;-80
2021/10/25 01:51:56;;;;;;;4.78;2.83;;;;;;;3.20;100.00;101203.66;5234779;28;20067;-80
2021/10/25 01:54:27;;;;;;;5.47;2.83;;;;;;;3.16;100.00;101201.94;5237182;28;20480;-79
2021/10/25 01:56:57;;;;;;;4.28;2.70;;;;;;;3.30;100.00;101200.25;5231116;28;20452;-80
2021/10/25 01:59:27;;;;;;;5.43;3.03;;;;;;;3.39;100.00;101193.38;5227675;28;20032;-80
2021/10/25 02:01:58;;;;;;;5.60;2.70;;;;;;;3.36;100.00;101193.38;5235180;28;20027;-80
2021/10/25 02:04:29;;;;;;;5.30;2.80;;;;;;;3.36;100.00;101195.97;5234539;28;20025;-80
2021/10/25 02:06:59;;;;;;;6.57;2.70;;;;;;;3.42;100.00;101190.84;5233382;28;20021;-80
2021/10/25 02:09:30;;;;;;;4.60;2.33;;;;;;;3.29;100.00;101188.19;5230479;28;20059;-80
2021/10/25 02:12:00;;;;;;;5.63;2.30;;;;;;;3.18;100.00;101185.56;5230968;28;20098;-79
2021/10/25 02:14:30;;;;;;;4.90;2.35;;;;;;;3.10;100.00;101189.84;5235284;28;20484;-80
2021/10/25 02:17:01;;;;;;;4.32;2.17;;;;;;;2.95;100.00;101191.50;5237752;28;20062;-80
2021/10/25 02:19:32;;;;;;;4.90;2.28;;;;;;;2.87;100.00;101188.88;5235586;28;20047;-80
2021/10/25 02:22:02;;;;;;;3.80;2.13;;;;;;;2.94;100.00;101187.19;5233935;28;20503;-81
2021/10/25 02:24:33;;;;;;;3.70;2.03;;;;;;;2.64;100.00;101176.69;5232670;28;20040;-80
2021/10/25 02:27:04;;;;;;;5.43;1.75;;;;;;;2.47;100.00;101175.75;5230325;28;20024;-79
2021/10/25 02:29:38;;;;;;;4.20;2.17;;;;;;;2.52;100.00;101169.75;5228731;28;20397;-80
2021/10/25 02:32:09;;;;;;;6.63;2.38;;;;;;;2.37;100.00;101173.97;5238045;28;20021;-80
2021/10/25 02:34:40;;;;;;;5.38;2.58;;;;;;;2.40;100.00;101169.69;5233627;28;20024;-80
2021/10/25 02:37:12;;;;;;;3.40;1.85;;;;;;;2.38;100.00;101165.38;5235372;28;20027;-80
2021/10/25 02:39:43;;;;;;;5.28;2.50;;;;;;;2.53;100.00;101173.19;5229786;28;20040;-80
2021/10/25 02:42:14;;;;;;;4.70;2.38;;;;;;;2.52;100.00;101169.75;5232426;28;20020;-80
2021/10/25 02:44:44;;;;;;;4.30;2.35;;;;;;;2.67;100.00;101164.69;5234630;28;20679;-80
2021/10/25 02:47:15;;;;;;;5.65;3.00;;;;;;;2.73;100.00;101161.28;5236660;28;20017;-80
2021/10/25 02:49:45;;;;;;;5.28;2.50;;;;;;;2.66;100.00;101170.69;5231606;28;20028;-79
2021/10/25 02:52:16;;;;;;;6.35;2.83;;;;;;;2.77;100.00;101165.59;5234824;28;20032;-80
2021/10/25 02:54:46;;;;;;;6.85;2.83;;;;;;;2.93;100.00;101162.22;5232200;28;20142;-80
2021/10/25 02:57:17;;;;;;;5.95;2.35;;;;;;;3.01;100.00;101155.41;5230250;28;20035;-80
2021/10/25 02:59:47;;;;;;;7.93;2.60;;;;;;;2.97;100.00;101158.78;5225733;28;20029;-82
2021/10/25 03:02:17;;;;;;;6.50;2.80;;;;;;;3.00;100.00;101159.69;5233343;28;20024;-82
2021/10/25 03:04:47;;;;;;;5.53;2.47;;;;;;;2.76;100.00;101159.59;5237239;28;20072;-82
2021/10/25 03:07:18;;;;;;;7.00;2.40;;;;;;;2.73;100.00;101161.28;5233974;28;20055;-81
2021/10/25 03:09:48;;;;;;;7.40;2.70;;;;;;;2.85;100.00;101154.44;5235850;28;20028;-82
2021/10/25 03:12:18;;;;;;;4.85;2.38;;;;;;;2.49;100.00;101158.56;5234871;28;20013;-82
2021/10/25 03:14:48;;;;;;;5.45;2.70;;;;;;;2.53;100.00;101161.16;5251745;28;20028;-82
2021/10/25 03:17:19;;;;;;;8.25;2.83;;;;;;;2.62;100.00;101161.22;5232845;28;20283;-82
2021/10/25 03:19:50;;;;;;;4.00;2.28;;;;;;;2.64;100.00;101158.63;5234855;28;20029;-82
2021/10/25 03:22:21;;;;;;;5.10;2.55;;;;;;;2.65;100.00;101156.06;5247746;28;20035;-82
2021/10/25 03:24:51;;;;;;;6.97;2.53;;;;;;;2.64;100.00;101153.47;5236085;28;20028;-82
2021/10/25 03:27:21;;;;;;;5.78;2.67;;;;;;;2.63;100.00;101149.16;5232774;28;20079;-81
2021/10/25 03:29:52;;;;;;;6.15;2.42;;;;;;;2.77;100.00;101150.09;5235446;28;20028;-81
2021/10/25 03:32:22;;;;;;;4.30;2.47;;;;;;;2.73;100.00;101146.66;5233164;28;20457;-81
2021/10/25 03:34:53;;;;;;;5.22;2.17;;;;;;;2.63;100.00;101146.59;5235736;28;20017;-81
2021/10/25 03:37:24;;;;;;;4.07;2.25;;;;;;;2.63;100.00;101146.59;5239001;28;20097;-82
2021/10/25 03:39:54;;;;;;;5.97;2.40;;;;;;;2.56;100.00;101150.00;5235147;28;20104;-82
2021/10/25 03:42:37;;;;;;;4.20;2.38;;;;;;;2.53;100.00;101144.84;5236106;28;20417;-81
2021/10/25 03:45:33;;;;;;;4.35;2.60;;;;;;;2.50;100.00;101149.97;5241679;28;20024;-81
2021/10/25 03:48:10;;;;;;;;;;;;;;;2.53;100.00;101143.09;5238039;28;20024;-82
2021/10/25 03:50:42;;;;;;;4.95;2.33;;;;;;;2.56;100.00;101144.84;5244459;28;19921;-81
2021/10/25 03:56:03;;;;;;;4.72;2.65;;;;;;;2.68;100.00;101144.91;5237839;28;20040;-81
2021/10/25 04:26:52;;;;;;;5.18;2.25;;;;;;;2.46;100.00;101125.00;5239696;28;20152;-83
2021/10/25 04:29:26;;;;;;;4.35;2.50;;;;;;;2.44;100.00;101121.56;5237712;28;20051;-83
2021/10/25 04:31:57;;;;;;;5.97;2.85;;;;;;;2.54;100.00;101119.03;5258207;28;20052;-82
2021/10/25 04:34:27;;;;;;;5.85;2.63;;;;;;;2.59;100.00;101116.47;5240352;28;20031;-82
2021/10/25 04:36:58;;;;;;;6.40;2.58;;;;;;;2.69;100.00;101111.38;5241861;28;20024;-82
2021/10/25 04:39:28;;;;;;;5.68;2.70;;;;;;;2.73;100.00;101123.44;5234459;28;20049;-83
2021/10/25 04:41:59;;;;;;;6.50;2.65;;;;;;;2.89;100.00;101119.19;5234372;28;20082;-82
2021/10/25 04:44:30;;;;;;;4.60;2.30;;;;;;;2.83;100.00;101121.78;5241425;28;20032;-82
2021/10/25 04:47:00;;;;;;;4.28;2.28;;;;;;;2.85;100.00;101126.06;5245497;28;20029;-82
2021/10/25 04:49:31;;;;;;;4.03;2.47;;;;;;;2.65;100.00;101117.38;5242600;28;20496;-83
2021/10/25 04:52:03;;;;;;;6.25;2.83;;;;;;;2.55;100.00;101118.19;5240277;28;20046;-82
2021/10/25 04:54:33;;;;;;;5.60;2.80;;;;;;;2.46;100.00;101117.25;5240762;28;20124;-83
2021/10/25 04:57:04;;;;;;;5.20;2.58;;;;;;;2.34;100.00;101117.22;5242472;28;20577;-83
2021/10/25 04:59:34;;;;;;;6.60;2.67;;;;;;;2.21;100.00;101112.81;5236249;28;20086;-83
2021/10/25 05:02:04;;;;;;;6.38;2.72;;;;;;;2.22;100.00;101111.97;5237272;28;20403;-82
2021/10/25 05:04:35;;;;;;;4.97;2.72;;;;;;;2.51;100.00;101113.84;5236554;28;20024;-82
2021/10/25 05:07:05;;;;;;;5.53;2.35;;;;;;;2.44;100.00;101112.13;5235746;28;20275;-82
2021/10/25 05:09:35;;;;;;;6.03;2.50;;;;;;;2.47;100.00;101111.28;5231484;28;20028;-82
2021/10/25 05:12:12;;;;;;;6.53;2.80;;;;;;;2.45;100.00;101110.38;5237999;28;20017;-82
2021/10/25 05:14:43;;;;;;;6.65;2.45;;;;;;;2.57;100.00;101101.00;5241173;28;20029;-82
2021/10/25 05:17:13;;;;;;;7.45;2.60;;;;;;;2.52;100.00;101105.25;5240951;28;20021;-82
2021/10/25 05:19:44;;;;;;;9.13;2.80;;;;;;;2.48;100.00;101106.09;5235000;28;20028;-83
2021/10/25 05:22:14;;;;;;;5.45;2.50;;;;;;;2.33;100.00;101112.91;5241155;28;20035;-82
2021/10/25 05:24:45;;;;;;;5.03;2.60;;;;;;;2.21;100.00;101115.41;5235730;28;20056;-82
2021/10/25 05:27:16;;;;;;;9.60;2.50;;;;;;;2.19;100.00;101119.69;5232331;28;20091;-83
2021/10/25 05:29:47;;;;;;;6.95;3.20;;;;;;;2.24;100.00;101118.00;5237198;28;20030;-82
2021/10/25 05:32:17;;;;;;;4.85;2.95;;;;;;;2.50;100.00;101108.72;5236444;28;20107;-81
2021/10/25 05:34:48;;;;;;;5.35;2.70;;;;;;;2.48;100.00;101102.69;5231282;28;20040;-82
2021/10/25 05:37:18;;;;;;;6.85;2.53;;;;;;;2.41;100.00;101109.53;5235459;28;20020;-82
2021/10/25 05:39:48;;;;;;;4.80;2.45;;;;;;;2.45;100.00;101098.38;5227282;28;20032;-82
2021/10/25 05:42:19;;;;;;;5.00;2.72;;;;;;;2.35;100.00;101103.47;5235037;28;20020;-83
2021/10/25 05:44:49;;;;;;;6.75;2.85;;;;;;;2.39;100.00;101090.59;5251401;28;20454;-82
2021/10/25 05:47:19;;;;;;;4.20;2.80;;;;;;;2.26;100.00;101099.13;5231783;28;20479;-82
2021/10/25 05:49:50;;;;;;;4.28;2.53;;;;;;;2.46;100.00;101100.09;5237627;28;20195;-82
2021/10/25 05:52:20;;;;;;;4.78;2.20;;;;;;;2.46;100.00;101092.34;5251771;28;20508;-82
2021/10/25 05:54:52;;;;;;;3.80;2.10;;;;;;;2.40;100.00;101097.50;5237470;28;20456;-82
2021/10/25 05:57:23;;;;;;;3.97;2.42;;;;;;;2.31;100.00;101091.41;5231095;28;20064;-82
2021/10/25 05:59:54;;;;;;;8.02;2.72;;;;;;;2.27;100.00;101094.81;5229994;28;20021;-82
2021/10/25 06:02:27;;;;;;;4.25;2.13;;;;;;;2.26;100.00;101090.50;5239523;28;20081;-83
2021/10/25 06:04:58;;;;;;;4.53;2.35;;;;;;;2.27;100.00;101092.22;5238361;28;20025;-84
2021/10/25 06:07:28;;;;;;;6.22;2.53;;;;;;;2.42;100.00;101090.63;5238019;28;20391;-83
2021/10/25 06:09:59;;;;;;;5.28;2.58;;;;;;;2.27;100.00;101092.22;5239854;28;20031;-82
2021/10/25 06:12:37;;;;;;;6.28;2.65;;;;;;;2.12;100.00;101107.59;5234565;28;20020;-82
2021/10/25 06:15:15;;;;;;;4.82;2.15;;;;;;;2.24;100.00;101102.53;5237578;28;20016;-82
2021/10/25 06:17:55;;;;;;;6.57;2.50;;;;;;;2.33;100.00;101102.59;5240933;28;20111;-83
2021/10/25 06:20:28;;;;;;;5.50;2.47;;;;;;;2.47;100.00;101106.13;5232961;28;20029;-83
2021/10/25 06:22:58;;;;;;;5.50;2.75;;;;;;;2.53;100.00;101106.13;5236333;28;20494;-83
2021/10/25 06:25:28;;;;;;;4.40;2.45;;;;;;;2.65;100.00;101107.06;5234565;28;20028;-82
2021/10/25 06:27:59;;;;;;;4.65;2.40;;;;;;;2.66;100.00;101106.19;5239755;28;20016;-83
2021/10/25 06:30:30;;;;;;;6.70;3.05;;;;;;;2.87;100.00;101095.94;5229660;28;20425;-82
2021/10/25 06:33:03;;;;;;;6.05;2.78;;;;;;;2.94;100.00;101102.00;5252303;28;20021;-83
2021/10/25 06:35:34;;;;;;;7.63;2.63;;;;;;;2.84;100.00;101105.44;5235788;28;20097;-82
2021/10/25 06:38:12;;;;;;;4.85;2.75;;;;;;;2.76;100.00;101105.41;5233408;28;20107;-83
2021/10/25 06:40:42;;;;;;;6.35;2.55;;;;;;;2.76;100.00;101101.94;5232562;28;20031;-82
2021/10/25 06:43:12;;;;;;;7.00;2.70;;;;;;;2.92;100.00;101104.59;5232915;28;20021;-82
2021/10/25 06:45:43;;;;;;;4.93;2.70;;;;;;;3.08;100.00;101100.34;5233874;28;20056;-83
2021/10/25 06:48:13;;;;;;;6.75;3.00;;;;;;;3.22;100.00;101101.25;5235208;28;20029;-81
2021/10/25 06:50:44;;;;;;;4.90;2.63;;;;;;;3.27;100.00;101102.09;5241409;28;20051;-82
2021/10/25 06:53:16;;;;;;;6.65;3.20;;;;;;;3.29;100.00;101113.28;5238560;28;20391;-82
2021/10/25 06:55:47;;;;;;;4.65;2.58;;;;;;;3.35;100.00;101115.91;5238623;28;20605;-82
2021/10/25 06:58:21;;;;;;;5.20;3.00;;;;;;;3.42;100.00;101117.63;5234707;28;20085;-82
2021/10/25 07:00:51;;;;;;;6.65;2.88;;;;;;;3.54;100.00;101123.66;5237318;28;20365;-82
2021/10/25 07:03:21;;;;;;;6.10;2.92;;;;;;;3.42;100.00;101115.94;5238090;28;20040;-82
2021/10/25 07:05:52;;;;;;;7.53;3.08;;;;;;;3.48;100.00;101112.47;5233882;28;20063;-82
2021/10/25 07:08:23;;;;;;;6.20;3.10;;;;;;;3.58;100.00;101115.94;5238230;28;20025;-82
2021/10/25 07:10:53;;;;;;;4.82;2.63;;;;;;;3.80;100.00;101117.66;5238186;28;20024;-81
2021/10/25 07:13:25;;;;;;;8.38;2.90;;;;;;;3.82;100.00;101118.53;5243422;28;20021;-82
2021/10/25 07:16:03;;;;;;;5.82;3.08;;;;;;;4.00;100.00;101121.13;5240446;28;20577;-82
2021/10/25 07:18:39;;;;;;;6.30;2.90;;;;;;;3.99;100.00;101114.19;5239858;28;20037;-81
2021/10/25 08:08:49;;;;;;;5.03;2.40;;;;;;;10.99;84.57;101082.06;5239165;28;20028;-83
2021/10/25 08:11:09;;;;;;;5.70;2.60;;;;;;;11.37;80.76;101079.16;5226286;28;20033;-83
2021/10/25 08:13:41;;;;;;;4.80;2.33;;;;;;;11.91;80.58;101075.69;5238645;28;20495;-83
2021/10/25 08:21:20;;;;;;;4.18;2.13;;;;;;;13.08;73.26;101069.72;5241511;28;20572;-80
2021/10/25 08:23:51;;;;;;;4.47;2.30;;;;;;;12.57;76.00;101075.13;5238830;28;20029;-81
2021/10/25 08:26:22;;;;;;;3.85;2.50;;;;;;;13.24;74.07;101078.72;5236870;28;20079;-80
2021/10/25 08:28:52;;;;;;;4.22;2.30;;;;;;;13.27;73.70;101083.84;5235126;28;20025;-81
2021/10/25 08:31:23;;;;;;;5.85;2.70;;;;;;;12.74;74.85;101091.13;5236083;28;20024;-81
2021/10/25 08:34:15;;;;;;;5.82;2.35;;;;;;;12.50;77.22;101090.22;5239243;28;20023;-80
2021/10/25 08:42:23;;;;;;;6.05;2.53;;;;;;;11.51;82.27;101092.69;5230220;28;20024;-80
2021/10/25 08:44:58;;;;;;;3.60;2.40;;;;;;;11.05;82.45;101098.44;5235274;28;20056;-80
2021/10/25 08:47:33;;;;;;;5.85;2.75;;;;;;;10.13;88.54;101098.44;5230449;28;20090;-80
2021/10/25 08:50:06;;;;;;;5.07;2.80;;;;;;;10.24;89.52;101091.16;5235755;28;20118;-81
2021/10/25 08:52:37;;;;;;;6.20;3.00;;;;;;;10.26;89.43;101092.84;5238040;28;20021;-79
2021/10/25 08:55:10;;;;;;;5.65;3.00;;;;;;;10.13;91.22;101094.06;5237644;28;20130;-80
2021/10/25 08:57:41;;;;;;;6.00;2.63;;;;;;;10.19;90.55;101086.03;5241446;28;20033;-80
2021/10/25 09:00:22;;;;;;;5.63;3.10;;;;;;;10.11;92.80;101090.63;5274658;23;20050;-79
2021/10/25 09:02:58;;;;;;;5.60;2.97;;;;;;;10.35;93.44;101083.91;5274217;28;20392;-78
2021/10/25 09:05:29;;;;;;;8.23;3.40;;;;;;;10.50;93.18;101081.72;5289620;28;20472;-77
2021/10/25 09:08:04;;;;;;;7.38;3.13;;;;;;;10.58;92.81;101086.75;5290965;28;20088;-78
2021/10/25 09:10:43;;;;;;;7.38;3.40;;;;;;;10.40;91.67;101085.50;5270775;28;20406;-77
2021/10/25 09:13:20;;;;;;;6.60;3.40;;;;;;;10.59;91.69;101085.84;5274152;28;20039;-79
2021/10/25 09:15:59;;;;;;;6.20;3.67;;;;;;;10.60;92.03;101083.22;5295745;27;20039;-78
2021/10/25 09:18:31;;;;;;;5.80;3.45;;;;;;;10.57;92.94;101083.28;5279117;28;20016;-78
2021/10/25 09:21:09;;;;;;;6.82;3.50;;;;;;;10.72;93.13;101080.22;5278515;28;20474;-79
2021/10/25 09:23:49;;;;;;;6.63;3.30;;;;;;;10.66;92.76;101088.25;5278091;28;20023;-79
2021/10/25 09:26:23;;;;;;;6.93;2.85;;;;;;;10.98;91.63;101096.06;5280128;28;20032;-79
2021/10/25 09:28:56;;;;;;;8.32;3.78;;;;;;;11.04;91.75;101083.66;5278520;28;20557;-78
2021/10/25 09:31:31;;;;;;;6.85;3.90;;;;;;;10.77;94.43;101085.34;5279807;28;20083;-79
2021/10/25 09:34:12;;;;;;;6.95;4.10;;;;;;;11.00;93.18;101077.72;5279366;28;20014;-77
2021/10/25 09:36:49;;;;;;;6.38;2.97;;;;;;;11.24;91.30;101072.59;5279557;28;20712;-77
2021/10/25 09:39:38;;;;;;;4.75;2.72;;;;;;;11.26;91.30;101074.25;5274632;28;20027;-79
2021/10/25 09:42:24;;;;;;;5.97;2.50;;;;;;;11.25;90.77;101064.69;5279180;28;20032;-79
2021/10/25 09:50:50;;;;;;;4.63;2.40;;;;;;;11.89;85.66;101061.78;5274676;28;20129;-79
2021/10/25 09:53:35;;;;;;;4.57;2.22;;;;;;;12.09;86.68;101051.50;5279395;28;20052;-79
2021/10/25 09:56:10;;;;;;;4.07;2.58;;;;;;;12.25;87.17;101068.41;5277591;28;20051;-79
2021/10/25 10:01:41;;;;;;;9.52;2.80;;;;;;;12.29;86.40;101067.38;5257144;28;20099;-78
2021/10/25 10:04:12;;;;;;;3.92;2.25;;;;;;;12.33;85.96;101066.34;5272369;28;20032;-79
2021/10/25 10:06:42;;;;;;;3.70;2.17;;;;;;;12.27;85.93;101065.75;5274310;28;20020;-80
2021/10/25 10:09:14;;;;;;;6.25;2.40;;;;;;;12.30;84.70;101055.16;5276597;28;20650;-79
2021/10/25 10:11:45;;;;;;;3.85;2.20;;;;;;;12.11;85.81;101060.16;5276359;28;20031;-76
2021/10/25 10:14:15;;;;;;;4.82;1.90;;;;;;;12.08;86.77;101062.88;5277151;28;20028;-79
2021/10/25 10:16:47;;;;;;;6.00;2.15;;;;;;;12.20;85.59;101065.09;5280834;28;20028;-80
2021/10/25 10:19:24;;;;;;;3.97;2.08;;;;;;;11.98;85.96;101060.63;5273968;28;20095;-77
2021/10/25 10:21:58;;;;;;;5.47;2.30;;;;;;;12.01;85.50;101056.16;5281139;28;20028;-78
2021/10/25 10:24:31;;;;;;;6.25;2.20;;;;;;;11.85;86.41;101054.94;5279143;28;20019;-79
2021/10/25 10:27:07;;;;;;;5.78;1.90;;;;;;;11.83;86.18;101048.91;5278620;28;20028;-79
2021/10/25 10:29:40;;;;;;;3.85;2.03;;;;;;;11.90;84.27;101047.78;5270542;28;20437;-79
2021/10/25 10:32:14;;;;;;;4.07;2.03;;;;;;;11.97;85.70;101049.28;5275239;28;20059;-79
2021/10/25 10:34:47;;;;;;;5.05;1.95;;;;;;;11.95;84.53;101048.47;5279283;28;20083;-79
2021/10/25 10:37:24;;;;;;;3.95;1.60;;;;;;;12.10;84.92;101053.19;5280902;28;20027;-79
2021/10/25 10:39:58;;;;;;;3.13;1.77;;;;;;;12.31;82.93;101044.59;5276882;28;20040;-80
2021/10/25 10:42:31;;;;;;;4.53;1.90;;;;;;;12.21;83.40;101045.84;5274538;28;20047;-80
2021/10/25 10:45:11;;;;;;;4.22;1.95;;;;;;;12.25;83.57;101042.19;5274623;28;20028;-78
2021/10/25 10:47:45;;;;;;;3.55;1.80;;;;;;;12.35;81.95;101042.72;5274894;28;20028;-80
2021/10/25 10:50:23;;;;;;;3.65;1.85;;;;;;;12.45;81.70;101034.47;5281019;28;20031;-78
2021/10/25 10:53:13;;;;;;;3.47;1.85;;;;;;;12.49;81.84;101038.69;5280893;28;20087;-78
2021/10/25 10:55:44;;;;;;;4.00;1.70;;;;;;;12.68;83.67;101037.13;5277386;28;20058;-78
2021/10/25 10:58:28;;;;;;;4.13;1.75;;;;;;;12.90;81.65;101038.03;5276346;28;20019;-77
2021/10/25 11:01:05;;;;;;;3.75;1.90;;;;;;;13.14;82.52;101038.00;5270855;28;20031;-78
2021/10/25 11:03:36;;;;;;;5.22;1.75;;;;;;;13.19;82.41;101037.81;5275563;28;20032;-78
2021/10/25 11:06:16;;;;;;;4.35;1.88;;;;;;;13.29;83.11;101037.41;5276668;28;20039;-79
2021/10/25 11:08:47;;;;;;;3.63;1.70;;;;;;;13.31;80.27;101037.34;5282581;28;20042;-78
2021/10/25 11:11:20;;;;;;;4.63;1.77;;;;;;;13.35;82.04;101033.66;5280236;28;20028;-79
2021/10/25 11:13:59;;;;;;;5.28;1.88;;;;;;;13.33;81.17;101038.13;5281038;28;20037;-79
2021/10/25 11:16:44;;;;;;;3.63;1.98;;;;;;;13.21;82.62;101036.00;5278158;28;20206;-79
2021/10/25 11:19:14;;;;;;;6.10;2.95;;;;;;;13.14;83.03;101042.38;5277610;28;20020;-78
2021/10/25 11:21:51;;;;;;;5.53;2.10;;;;;;;13.05;84.82;101046.22;5279455;28;20045;-79
2021/10/25 11:24:23;;;;;;;7.20;2.40;;;;;;;12.86;83.57;101041.69;5283692;28;20073;-79
2021/10/25 11:26:56;;;;;;;5.30;2.35;;;;;;;12.85;85.05;101034.72;5279226;28;20032;-80
2021/10/25 11:29:33;;;;;;;7.15;2.05;;;;;;;12.72;86.09;101037.88;5271046;28;20031;-78
2021/10/25 11:32:06;;;;;;;4.53;1.83;;;;;;;12.68;86.21;101050.25;5274960;28;20698;-79
2021/10/25 11:34:46;;;;;;;4.53;1.95;;;;;;;12.81;85.96;101042.78;5274879;28;20089;-79
2021/10/25 11:37:23;;;;;;;4.15;1.80;;;;;;;13.13;85.09;101032.81;5279093;28;20031;-79
2021/10/25 11:40:03;;;;;;;3.95;1.60;;;;;;;13.27;83.96;101033.13;5285831;28;20073;-78
2021/10/25 11:42:41;;;;;;;4.43;1.83;;;;;;;13.48;84.42;101034.91;5277306;28;20023;-79
2021/10/25 11:45:16;;;;;;;3.05;1.55;;;;;;;13.38;83.79;101033.56;5279900;28;20060;-79
2021/10/25 11:47:49;;;;;;;3.38;1.67;;;;;;;13.46;82.71;101027.09;5280093;28;20422;-79
2021/10/25 11:50:24;;;;;;;4.13;1.95;;;;;;;13.19;81.77;101011.56;5273071;28;20024;-78
2021/10/25 11:53:07;;;;;;;4.47;1.80;;;;;;;13.41;83.46;101015.06;5284380;28;20016;-78
2021/10/25 11:55:40;;;;;;;4.22;1.80;;;;;;;13.24;83.49;101012.25;5293743;28;20020;-78
2021/10/25 11:58:13;;;;;;;5.55;1.95;;;;;;;13.06;81.98;101016.44;5279831;28;20051;-77
2021/10/25 12:00:49;;;;;;;3.42;1.60;;;;;;;13.09;83.20;101004.97;5282458;28;20035;-78
2021/10/25 12:03:22;;;;;;;;;;;;;;;12.86;84.53;101015.47;5290467;28;20023;-79
2021/10/25 12:05:53;;;;;;;3.55;1.83;;;;;;;12.95;86.45;101004.66;5280257;28;19994;-79
2021/10/25 12:08:24;;;;;;;4.50;1.90;;;;;;;13.02;84.75;100998.22;5279261;28;20113;-82
2021/10/25 12:10:55;;;;;;;5.55;1.98;;;;;;;13.10;84.85;100996.19;5278285;28;20028;-80
2021/10/25 12:13:25;;;;;;;6.72;2.25;;;;;;;13.04;84.00;100992.03;5279156;28;20016;-79
2021/10/25 12:16:02;;;;;;;4.00;1.70;;;;;;;13.14;84.16;100985.50;5274952;28;20030;-79
2021/10/25 12:18:33;;;;;;;5.60;2.40;;;;;;;12.93;84.57;100980.25;5292795;28;20036;-79
2021/10/25 12:21:09;;;;;;;7.35;2.83;;;;;;;12.88;84.98;100983.00;5282059;28;20019;-79
2021/10/25 12:23:46;;;;;;;5.53;2.13;;;;;;;12.88;85.46;100987.41;5281793;28;20034;-79
2021/10/25 12:26:17;;;;;;;4.65;1.92;;;;;;;12.86;86.02;100981.38;5285109;28;20085;-78
2021/10/25 12:28:47;;;;;;;4.25;1.90;;;;;;;13.24;85.78;100986.84;5287382;28;20015;-77
2021/10/25 12:31:20;;;;;;;3.60;1.90;;;;;;;13.32;84.69;100989.16;5273156;28;20541;-78
2021/10/25 12:34:01;;;;;;;6.03;2.03;;;;;;;13.13;85.29;100985.56;5280834;28;20266;-78
2021/10/25 12:36:45;;;;;;;6.95;2.25;;;;;;;13.11;85.67;100977.75;5284858;28;20083;-79
2021/10/25 12:39:18;;;;;;;6.03;2.35;;;;;;;12.99;84.59;100980.88;5291139;28;20020;-78
2021/10/25 12:41:58;;;;;;;8.87;3.20;;;;;;;12.96;85.10;100980.13;5282414;28;20038;-79
2021/10/25 12:44:35;;;;;;;4.30;2.33;;;;;;;13.04;85.42;100978.91;5285534;28;20023;-80
2021/10/25 12:47:16;;;;;;;5.93;2.80;;;;;;;13.29;86.48;100976.16;5283440;28;20039;-79
2021/10/25 12:49:48;;;;;;;8.63;2.75;;;;;;;13.17;84.71;100974.88;5286688;28;20051;-79
2021/10/25 12:52:20;;;;;;;6.95;2.67;;;;;;;13.07;85.43;100983.19;5284002;28;20378;-78
2021/10/25 12:54:57;;;;;;;6.72;2.45;;;;;;;13.20;84.45;100973.91;5277628;28;20035;-79
2021/10/25 12:57:33;;;;;;;5.97;2.50;;;;;;;13.14;85.88;100968.91;5276744;28;20046;-78
2021/10/25 13:00:07;;;;;;;8.77;2.88;;;;;;;13.15;85.13;100971.47;5279707;28;20418;-79
2021/10/25 13:02:49;;;;;;;7.03;2.20;;;;;;;13.26;82.80;100965.78;5285908;27;20028;-79
2021/10/25 13:05:31;;;;;;;6.18;2.10;;;;;;;13.24;81.23;100962.38;5286871;28;20631;-79
2021/10/25 13:08:04;;;;;;;9.10;1.90;;;;;;;13.25;79.39;100964.91;5283457;28;20031;-79
2021/10/25 13:10:43;;;;;;;6.57;1.70;;;;;;;13.30;79.14;100949.88;5274366;28;20039;-79
2021/10/25 13:13:17;;;;;;;4.00;1.73;;;;;;;13.23;76.88;100945.75;5278282;28;20391;-79
2021/10/25 13:15:47;;;;;;;4.35;1.80;;;;;;;13.07;77.82;100946.44;5279574;28;20478;-78
2021/10/25 13:18:18;;;;;;;4.25;1.83;;;;;;;12.99;79.21;100953.75;5283803;28;20072;-79
2021/10/25 13:20:48;;;;;;;5.72;1.88;;;;;;;12.91;78.34;100953.19;5270582;28;20020;-77
2021/10/25 13:23:22;;;;;;;4.97;1.85;;;;;;;12.76;79.15;100945.91;5280675;28;20031;-80
2021/10/25 13:25:52;;;;;;;5.20;2.08;;;;;;;12.67;78.25;100943.63;5279035;28;20646;-79
2021/10/25 13:28:22;;;;;;;3.42;1.75;;;;;;;12.59;78.20;100945.69;5280708;28;20080;-78
2021/10/25 13:30:53;;;;;;;6.00;1.88;;;;;;;12.56;78.75;100945.81;5278716;28;20023;-79